createdAt,value
2022-11-05T00:01:41.868Z,34.77
2022-11-05T00:04:30.911Z,34.73
2022-11-05T00:07:21.942Z,29.17
2022-11-05T00:09:50.095Z,35.47
2022-11-05T00:12:35.443Z,37.72
2022-11-05T00:15:20.712Z,33.22
2022-11-05T00:17:48.223Z,32.90
2022-11-05T00:20:16.123Z,35.15
2022-11-05T00:23:02.985Z,33.33
2022-11-05T00:25:32.649Z,34.90
2022-11-05T00:28:02.305Z,41.00
2022-11-05T00:30:31.318Z,27.63
2022-11-05T00:33:03.474Z,34.50
2022-11-05T00:35:31.342Z,30.92
2022-11-05T00:38:00.592Z,31.63
2022-11-05T00:40:28.158Z,29.33
2022-11-05T00:43:13.933Z,28.52
2022-11-05T00:45:41.591Z,27.40
2022-11-05T00:48:27.228Z,29.67
2022-11-05T00:50:55.780Z,26.35
2022-11-05T00:53:24.816Z,25.27
2022-11-05T00:55:52.406Z,23.10
2022-11-05T00:58:21.950Z,31.23
2022-11-05T01:00:51.552Z,26.65
2022-11-05T01:03:21.470Z,23.50
2022-11-05T01:05:50.537Z,22.60
2022-11-05T01:08:20.082Z,31.33
2022-11-05T01:10:50.821Z,23.58
2022-11-05T01:13:20.481Z,28.10
2022-11-05T01:15:50.998Z,24.53
2022-11-05T01:18:19.308Z,26.70
2022-11-05T01:20:47.364Z,21.92
2022-11-05T01:23:15.590Z,27.95
2022-11-05T01:25:43.912Z,26.17
2022-11-05T01:28:12.959Z,27.77
2022-11-05T01:30:41.701Z,24.25
2022-11-05T01:33:09.855Z,27.35
2022-11-05T01:35:37.739Z,26.97
2022-11-05T01:38:05.508Z,27.63
2022-11-05T01:40:33.278Z,25.27
2022-11-05T01:43:00.843Z,23.90
2022-11-05T01:45:30.027Z,26.80
2022-11-05T01:48:05.732Z,27.53
2022-11-05T01:50:40.390Z,27.00
2022-11-05T01:53:15.512Z,23.37
2022-11-05T01:55:45.644Z,24.13
2022-11-05T01:58:16.864Z,21.27
2022-11-05T02:00:45.925Z,24.80
2022-11-05T02:03:15.542Z,25.02
2022-11-05T02:05:43.890Z,25.05
2022-11-05T02:08:18.355Z,24.88
2022-11-05T02:10:46.735Z,31.52
2022-11-05T02:13:14.517Z,29.00
2022-11-05T02:15:55.930Z,30.92
2022-11-05T02:18:33.518Z,29.90
2022-11-05T02:21:23.150Z,27.60
2022-11-05T02:24:28.903Z,29.77
2022-11-05T02:27:09.269Z,28.88
2022-11-05T02:30:08.792Z,33.17
2022-11-05T02:32:43.615Z,25.70
2022-11-05T02:35:19.101Z,33.33
2022-11-05T02:37:49.670Z,30.90
2022-11-05T02:40:20.681Z,32.53
2022-11-05T02:42:54.690Z,26.27
2022-11-05T02:45:30.955Z,27.70
2022-11-05T02:48:06.491Z,26.60
2022-11-05T02:50:36.559Z,21.75
2022-11-05T02:53:10.087Z,26.60
2022-11-05T02:55:39.679Z,30.03
2022-11-05T02:58:07.826Z,30.08
2022-11-05T03:00:46.313Z,33.45
2022-11-05T03:03:21.213Z,27.33
2022-11-05T03:06:15.779Z,23.08
2022-11-05T03:09:04.818Z,24.85
2022-11-05T03:11:34.759Z,24.85
2022-11-05T03:14:08.851Z,23.05
2022-11-05T03:16:40.872Z,21.33
2022-11-05T03:19:14.610Z,23.97
2022-11-05T03:21:47.454Z,27.30
2022-11-05T03:24:18.163Z,26.55
2022-11-05T03:26:48.990Z,27.70
2022-11-05T03:29:20.534Z,20.90
2022-11-05T03:31:50.157Z,30.67
2022-11-05T03:34:22.729Z,16.95
2022-11-05T03:36:53.146Z,24.05
2022-11-05T03:39:24.879Z,19.95
2022-11-05T03:41:53.693Z,19.17
2022-11-05T03:44:26.339Z,19.95
2022-11-05T03:46:56.491Z,23.48
2022-11-05T03:49:27.876Z,20.30
2022-11-05T03:51:59.990Z,25.70
2022-11-05T03:54:27.694Z,27.60
2022-11-05T03:57:02.634Z,28.00
2022-11-05T03:59:32.309Z,31.63
2022-11-05T04:02:00.014Z,23.90
2022-11-05T04:04:29.476Z,29.58
2022-11-05T04:07:14.784Z,28.25
2022-11-05T04:09:59.854Z,27.65
2022-11-05T04:12:45.126Z,19.08
2022-11-05T04:15:12.895Z,21.80
2022-11-05T04:17:39.461Z,25.65
2022-11-05T04:20:27.358Z,20.20
2022-11-05T04:23:17.766Z,20.05
2022-11-05T04:25:45.765Z,20.20
2022-11-05T04:28:13.591Z,22.90
2022-11-05T04:30:40.569Z,30.98
2022-11-05T04:33:10.940Z,26.58
2022-11-05T04:35:42.234Z,25.83
2022-11-05T04:38:12.724Z,25.65
2022-11-05T04:40:41.472Z,30.00
2022-11-05T04:43:14.879Z,24.27
2022-11-05T04:45:43.205Z,25.98
2022-11-05T04:48:10.809Z,34.47
2022-11-05T04:50:39.912Z,32.00
2022-11-05T04:53:07.952Z,24.63
2022-11-05T04:55:35.839Z,26.02
2022-11-05T04:58:03.559Z,29.27
2022-11-05T05:00:31.389Z,38.30
2022-11-05T05:02:59.293Z,35.95
2022-11-05T05:05:26.855Z,26.23
2022-11-05T05:07:55.783Z,36.45
2022-11-05T05:10:24.122Z,20.25
2022-11-05T05:12:52.848Z,34.78
2022-11-05T05:15:20.491Z,22.25
2022-11-05T05:17:51.762Z,24.98
2022-11-05T05:20:37.457Z,35.28
2022-11-05T05:23:06.579Z,35.43
2022-11-05T05:25:34.234Z,31.87
2022-11-05T05:28:02.981Z,39.55
2022-11-05T05:30:30.810Z,46.30
2022-11-05T05:32:58.807Z,58.55
2022-11-05T05:35:26.327Z,45.53
2022-11-05T05:37:56.828Z,35.93
2022-11-05T05:40:26.118Z,37.92
2022-11-05T05:42:55.338Z,36.38
2022-11-05T05:45:22.938Z,33.17
2022-11-05T05:47:50.690Z,42.53
2022-11-05T05:50:18.303Z,36.03
2022-11-05T05:52:46.069Z,37.37
2022-11-05T05:55:13.810Z,28.73
2022-11-05T05:57:42.881Z,33.28
2022-11-05T06:00:12.699Z,25.65
2022-11-05T06:02:40.518Z,31.15
2022-11-05T06:05:08.847Z,27.63
2022-11-05T06:07:37.596Z,32.33
2022-11-05T06:10:06.014Z,24.15
2022-11-05T06:12:33.645Z,28.17
2022-11-05T06:15:03.000Z,35.93
2022-11-05T06:17:30.778Z,25.98
2022-11-05T06:19:58.537Z,24.23
2022-11-05T06:22:26.533Z,21.83
2022-11-05T06:24:54.062Z,29.50
2022-11-05T06:27:22.514Z,33.33
2022-11-05T06:29:50.282Z,18.43
2022-11-05T06:32:19.410Z,20.25
2022-11-05T06:34:47.150Z,28.85
2022-11-05T06:37:14.937Z,25.40
2022-11-05T06:39:42.921Z,19.38
2022-11-05T06:42:18.269Z,23.15
2022-11-05T06:44:46.455Z,21.38
2022-11-05T06:47:14.211Z,23.70
2022-11-05T06:49:43.181Z,23.40
2022-11-05T06:52:10.973Z,20.70
2022-11-05T06:54:38.557Z,17.98
2022-11-05T06:57:09.729Z,23.00
2022-11-05T06:59:37.682Z,22.08
2022-11-05T07:02:05.963Z,26.67
2022-11-05T07:04:35.287Z,20.45
2022-11-05T07:07:04.653Z,18.90
2022-11-05T07:09:32.411Z,21.47
2022-11-05T07:11:59.993Z,23.33
2022-11-05T07:14:27.723Z,28.30
2022-11-05T07:16:56.441Z,22.27
2022-11-05T07:19:24.114Z,23.85
2022-11-05T07:21:52.371Z,18.75
2022-11-05T07:24:35.464Z,20.90
2022-11-05T07:27:03.241Z,19.35
2022-11-05T07:29:30.789Z,22.52
2022-11-05T07:31:59.610Z,24.23
2022-11-05T07:34:27.191Z,19.13
2022-11-05T07:36:56.054Z,20.70
2022-11-05T07:39:26.207Z,18.23
2022-11-05T07:41:54.795Z,18.23
2022-11-05T07:44:22.587Z,16.27
2022-11-05T07:46:50.945Z,20.45
2022-11-05T07:49:19.680Z,18.13
2022-11-05T07:51:47.197Z,21.58
2022-11-05T07:54:14.801Z,25.48
2022-11-05T07:56:43.885Z,21.25
2022-11-05T07:59:11.856Z,24.63
2022-11-05T08:01:39.541Z,22.13
2022-11-05T08:04:07.553Z,25.05
2022-11-05T08:06:36.081Z,26.95
2022-11-05T08:09:03.932Z,27.38
2022-11-05T08:11:32.661Z,28.65
2022-11-05T08:14:01.966Z,29.38
2022-11-05T08:16:29.613Z,29.33
2022-11-05T08:18:57.899Z,31.70
2022-11-05T08:21:26.456Z,32.67
2022-11-05T08:23:54.326Z,32.30
2022-11-05T08:26:22.066Z,29.23
2022-11-05T08:28:49.653Z,32.78
2022-11-05T08:31:18.888Z,29.87
2022-11-05T08:33:46.444Z,26.73
2022-11-05T08:36:14.478Z,33.25
2022-11-05T08:38:42.221Z,33.75
2022-11-05T08:41:10.080Z,37.03
2022-11-05T08:43:37.751Z,36.45
2022-11-05T08:46:05.450Z,36.28
2022-11-05T08:48:36.815Z,41.92
2022-11-05T08:51:04.847Z,39.60
2022-11-05T08:53:32.605Z,35.08
2022-11-05T08:56:00.708Z,37.35
2022-11-05T08:58:28.464Z,44.88
2022-11-05T09:01:01.817Z,40.57
2022-11-05T09:03:32.112Z,43.27
2022-11-05T09:06:01.048Z,41.65
2022-11-05T09:08:28.854Z,39.88
2022-11-05T09:10:56.632Z,33.13
2022-11-05T09:13:25.223Z,43.63
2022-11-05T09:15:53.371Z,44.77
2022-11-05T09:18:22.387Z,39.47
2022-11-05T09:20:50.157Z,42.97
2022-11-05T09:23:19.355Z,46.83
2022-11-05T09:25:47.330Z,44.75
2022-11-05T09:28:18.860Z,44.00
2022-11-05T09:30:49.466Z,45.08
2022-11-05T09:33:18.182Z,45.53
2022-11-05T09:35:46.917Z,48.15
2022-11-05T09:38:14.923Z,44.27
2022-11-05T09:40:48.563Z,46.10
2022-11-05T09:43:18.407Z,45.55
2022-11-05T09:45:48.462Z,46.93
2022-11-05T09:48:18.358Z,42.17
2022-11-05T09:50:47.617Z,37.70
2022-11-05T09:53:17.638Z,39.75
2022-11-05T09:55:48.882Z,42.35
2022-11-05T09:58:25.986Z,34.28
2022-11-05T10:00:56.253Z,39.58
2022-11-05T10:03:26.384Z,29.15
2022-11-05T10:05:55.814Z,30.45
2022-11-05T10:08:25.398Z,24.10
2022-11-05T10:10:56.795Z,25.50
2022-11-05T10:13:27.749Z,26.00
2022-11-05T10:16:01.103Z,26.90
2022-11-05T10:18:32.544Z,20.90
2022-11-05T10:21:00.148Z,22.33
2022-11-05T10:23:28.772Z,22.50
2022-11-05T10:26:00.072Z,23.08
2022-11-05T10:28:33.059Z,23.98
2022-11-05T10:31:02.219Z,25.08
2022-11-05T10:33:33.446Z,21.23
2022-11-05T10:36:06.069Z,24.80
2022-11-05T10:38:33.752Z,20.73
2022-11-05T10:41:15.458Z,20.65
2022-11-05T10:43:46.717Z,21.40
2022-11-05T10:46:27.062Z,19.90
2022-11-05T10:49:05.289Z,19.15
2022-11-05T10:51:33.775Z,22.13
2022-11-05T10:54:05.732Z,20.73
2022-11-05T10:56:36.842Z,19.10
2022-11-05T10:59:11.876Z,20.15
2022-11-05T11:01:40.366Z,17.70
2022-11-05T11:04:15.527Z,21.73
2022-11-05T11:06:49.599Z,18.90
2022-11-05T11:09:26.150Z,19.65
2022-11-05T11:12:03.924Z,16.83
2022-11-05T11:14:31.989Z,18.27
2022-11-05T11:17:24.669Z,15.48
2022-11-05T11:19:53.537Z,15.13
2022-11-05T11:22:22.640Z,12.50
2022-11-05T11:24:53.932Z,17.65
2022-11-05T11:27:25.418Z,14.57
2022-11-05T11:29:57.922Z,11.23
2022-11-05T11:32:30.058Z,11.60
2022-11-05T11:34:58.916Z,11.00
2022-11-05T11:37:29.323Z,11.80
2022-11-05T11:40:00.311Z,11.18
2022-11-05T11:42:33.330Z,13.65
2022-11-05T11:45:06.173Z,14.80
2022-11-05T11:47:34.847Z,11.80
2022-11-05T11:50:34.127Z,12.82
2022-11-05T11:53:18.876Z,11.43
2022-11-05T11:55:59.128Z,10.50
2022-11-05T11:58:37.987Z,11.43
2022-11-05T12:01:32.170Z,11.07
2022-11-05T12:04:08.351Z,12.35
2022-11-05T12:06:42.636Z,10.93
2022-11-05T12:09:15.460Z,11.47
2022-11-05T12:11:44.909Z,9.55
2022-11-05T12:14:21.514Z,10.90
2022-11-05T12:17:01.968Z,9.80
2022-11-05T12:19:51.991Z,11.25
2022-11-05T12:22:31.802Z,7.75
2022-11-05T12:25:11.918Z,8.80
2022-11-05T12:27:49.192Z,7.97
2022-11-05T12:30:18.537Z,7.40
2022-11-05T12:33:01.755Z,15.38
2022-11-05T12:35:45.722Z,10.95
2022-11-05T12:38:30.939Z,7.70
2022-11-05T12:41:06.941Z,9.85
2022-11-05T12:43:43.442Z,8.23
2022-11-05T12:46:27.621Z,7.57
2022-11-05T12:49:08.269Z,7.43
2022-11-05T12:51:47.461Z,12.23
2022-11-05T12:54:24.138Z,9.75
2022-11-05T12:56:54.603Z,7.23
2022-11-05T12:59:25.854Z,10.13
2022-11-05T13:01:56.630Z,8.30
2022-11-05T13:04:31.987Z,8.52
2022-11-05T13:07:02.242Z,6.68
2022-11-05T13:09:35.612Z,7.30
2022-11-05T13:12:06.411Z,9.02
2022-11-05T13:14:37.669Z,7.28
2022-11-05T13:17:08.402Z,11.85
2022-11-05T13:19:38.821Z,6.88
2022-11-05T13:22:14.777Z,6.57
2022-11-05T13:24:49.823Z,8.80
2022-11-05T13:27:32.182Z,7.03
2022-11-05T13:30:03.543Z,11.10
2022-11-05T13:32:34.052Z,6.17
2022-11-05T13:35:03.870Z,6.95
2022-11-05T13:37:51.462Z,7.43
2022-11-05T13:40:24.918Z,7.68
2022-11-05T13:43:04.346Z,7.47
2022-11-05T13:45:44.091Z,8.35
2022-11-05T13:48:31.135Z,8.48
2022-11-05T13:51:21.183Z,10.77
2022-11-05T13:54:01.797Z,7.88
2022-11-05T13:56:41.219Z,8.57
2022-11-05T13:59:44.474Z,7.72
2022-11-05T14:02:15.714Z,8.05
2022-11-05T14:04:47.344Z,6.43
2022-11-05T14:07:18.459Z,8.50
2022-11-05T14:09:47.002Z,5.60
2022-11-05T14:12:23.456Z,8.43
2022-11-05T14:14:58.665Z,5.72
2022-11-05T14:17:34.136Z,6.45
2022-11-05T14:20:23.524Z,5.47
2022-11-05T14:22:52.380Z,7.17
2022-11-05T14:26:03.057Z,7.63
2022-11-05T14:28:44.737Z,5.83
2022-11-05T14:31:41.073Z,6.53
2022-11-05T14:34:22.510Z,5.40
2022-11-05T14:37:14.884Z,6.72
2022-11-05T14:39:42.834Z,6.90
2022-11-05T14:42:16.874Z,5.53
2022-11-05T14:45:05.518Z,7.70
2022-11-05T14:47:35.445Z,5.43
2022-11-05T14:50:08.932Z,6.63
2022-11-05T14:52:37.189Z,7.20
2022-11-05T14:55:05.481Z,5.43
2022-11-05T14:58:17.981Z,4.85
2022-11-05T15:00:50.662Z,9.50
2022-11-05T15:03:47.333Z,6.65
2022-11-05T15:06:23.815Z,12.68
2022-11-05T15:08:57.671Z,8.50
2022-11-05T15:11:30.681Z,10.60
2022-11-05T15:14:05.153Z,8.23
2022-11-05T15:16:36.936Z,12.15
2022-11-05T15:19:06.439Z,10.98
2022-11-05T15:21:36.362Z,9.05
2022-11-05T15:24:05.552Z,11.32
2022-11-05T15:26:40.436Z,10.40
2022-11-05T15:29:17.902Z,12.32
2022-11-05T15:31:47.944Z,10.33
2022-11-05T15:34:20.326Z,9.50
2022-11-05T15:36:50.151Z,17.20
2022-11-05T15:39:33.494Z,12.25
2022-11-05T15:42:04.524Z,11.25
2022-11-05T15:44:34.648Z,11.68
2022-11-05T15:47:17.714Z,9.05
2022-11-05T15:49:47.384Z,12.32
2022-11-05T15:52:16.710Z,11.05
2022-11-05T15:54:45.604Z,10.90
2022-11-05T15:57:24.864Z,14.00
2022-11-05T15:59:53.567Z,7.43
2022-11-05T16:02:29.817Z,12.10
2022-11-05T16:04:57.993Z,10.82
2022-11-05T16:07:25.699Z,12.53
2022-11-05T16:09:56.236Z,12.35
2022-11-05T16:12:32.981Z,10.13
2022-11-05T16:15:04.229Z,12.32
2022-11-05T16:17:45.428Z,14.95
2022-11-05T16:20:25.090Z,11.73
2022-11-05T16:22:54.339Z,7.22
2022-11-05T16:25:33.400Z,11.45
2022-11-05T16:28:02.136Z,9.27
2022-11-05T16:30:29.898Z,11.20
2022-11-05T16:33:06.289Z,12.00
2022-11-05T16:35:34.426Z,7.60
2022-11-05T16:38:03.068Z,7.82
2022-11-05T16:40:30.769Z,9.57
2022-11-05T16:43:10.785Z,8.95
2022-11-05T16:45:41.432Z,10.88
2022-11-05T16:48:12.401Z,10.15
2022-11-05T16:50:40.425Z,9.03
2022-11-05T16:53:08.093Z,9.43
2022-11-05T16:55:39.362Z,12.13
2022-11-05T16:58:07.466Z,10.60
2022-11-05T17:00:35.332Z,11.65
2022-11-05T17:03:04.258Z,11.80
2022-11-05T17:05:33.394Z,11.68
2022-11-05T17:08:03.439Z,13.00
2022-11-05T17:10:32.301Z,12.13
2022-11-05T17:12:59.908Z,8.68
2022-11-05T17:15:31.156Z,17.27
2022-11-05T17:17:59.601Z,7.75
2022-11-05T17:20:38.358Z,9.93
2022-11-05T17:23:10.134Z,10.65
2022-11-05T17:25:38.413Z,11.48
2022-11-05T17:28:07.453Z,12.75
2022-11-05T17:30:35.217Z,16.55
2022-11-05T17:33:03.009Z,10.03
2022-11-05T17:35:30.889Z,11.60
2022-11-05T17:37:58.515Z,10.10
2022-11-05T17:40:28.790Z,12.50
2022-11-05T17:42:57.773Z,15.70
2022-11-05T17:45:27.154Z,13.25
2022-11-05T17:47:55.399Z,8.45
2022-11-05T17:50:23.524Z,13.40
2022-11-05T17:52:52.272Z,12.52
2022-11-05T17:55:20.022Z,14.60
2022-11-05T17:57:50.866Z,11.55
2022-11-05T18:00:20.451Z,8.88
2022-11-05T18:02:49.627Z,9.45
2022-11-05T18:05:17.951Z,8.43
2022-11-05T18:07:46.105Z,10.13
2022-11-05T18:10:14.218Z,15.43
2022-11-05T18:12:42.283Z,10.05
2022-11-05T18:15:12.218Z,11.82
2022-11-05T18:17:40.266Z,13.35
2022-11-05T18:20:15.741Z,8.82
2022-11-05T18:22:46.198Z,10.60
2022-11-05T18:25:14.518Z,15.30
2022-11-05T18:27:42.486Z,9.57
2022-11-05T18:30:15.360Z,14.13
2022-11-05T18:32:44.080Z,11.50
2022-11-05T18:35:13.336Z,11.65
2022-11-05T18:37:41.312Z,9.05
2022-11-05T18:40:09.407Z,9.13
2022-11-05T18:42:37.464Z,8.43
2022-11-05T18:45:07.193Z,9.98
2022-11-05T18:47:36.495Z,12.32
2022-11-05T18:50:05.487Z,12.10
2022-11-05T18:52:33.462Z,12.80
2022-11-05T18:55:01.466Z,6.63
2022-11-05T18:57:29.199Z,8.18
2022-11-05T18:59:56.759Z,9.70
2022-11-05T19:02:25.317Z,10.93
2022-11-05T19:05:26.700Z,6.00
2022-11-05T19:07:42.732Z,11.48
2022-11-05T19:10:10.614Z,8.07
2022-11-05T19:12:38.237Z,7.63
2022-11-05T19:15:06.742Z,9.82
2022-11-05T19:17:34.707Z,10.95
2022-11-05T19:20:05.108Z,8.60
2022-11-05T19:22:33.147Z,10.05
2022-11-05T19:25:01.936Z,8.50
2022-11-05T19:27:29.602Z,8.55
2022-11-05T19:29:57.358Z,7.95
2022-11-05T19:32:25.131Z,9.70
2022-11-05T19:34:52.863Z,6.93
2022-11-05T19:37:21.831Z,9.25
2022-11-05T19:39:49.631Z,8.43
2022-11-05T19:42:17.297Z,9.60
2022-11-05T19:44:45.287Z,9.30
2022-11-05T19:47:13.009Z,9.00
2022-11-05T19:49:40.737Z,5.80
2022-11-05T19:52:08.638Z,10.38
2022-11-05T19:54:39.192Z,9.65
2022-11-05T19:57:07.700Z,5.95
2022-11-05T19:59:35.437Z,9.77
2022-11-05T20:02:03.116Z,12.45
2022-11-05T20:04:30.891Z,7.93
2022-11-05T20:06:58.980Z,10.13
2022-11-05T20:09:27.204Z,6.83
2022-11-05T20:11:57.231Z,7.88
2022-11-05T20:14:25.875Z,7.65
2022-11-05T20:16:54.069Z,12.27
2022-11-05T20:19:23.934Z,10.38
2022-11-05T20:21:51.526Z,9.20
2022-11-05T20:24:24.619Z,8.60
2022-11-05T20:26:54.991Z,10.98
2022-11-05T20:29:29.060Z,13.00
2022-11-05T20:32:02.209Z,7.25
2022-11-05T20:34:30.532Z,8.77
2022-11-05T20:37:12.126Z,7.28
2022-11-05T20:39:39.897Z,11.23
2022-11-05T20:42:07.581Z,7.90
2022-11-05T20:44:36.595Z,10.23
2022-11-05T20:47:07.150Z,8.10
2022-11-05T20:49:34.898Z,13.20
2022-11-05T20:52:03.667Z,7.23
2022-11-05T20:54:31.411Z,10.13
2022-11-05T20:56:59.023Z,9.23
2022-11-05T20:59:28.171Z,12.43
2022-11-05T21:01:57.279Z,9.50
2022-11-05T21:04:25.358Z,9.57
2022-11-05T21:06:54.498Z,9.88
2022-11-05T21:09:22.327Z,7.82
2022-11-05T21:12:07.797Z,6.68
2022-11-05T21:14:35.517Z,11.43
2022-11-05T21:17:05.164Z,13.35
2022-11-05T21:19:33.716Z,11.57
2022-11-05T21:22:01.455Z,7.55
2022-11-05T21:24:29.106Z,13.32
2022-11-05T21:26:57.028Z,7.85
2022-11-05T21:29:24.824Z,11.13
2022-11-05T21:31:53.012Z,8.52
2022-11-05T21:34:22.804Z,7.80
2022-11-05T21:36:51.450Z,8.07
2022-11-05T21:39:19.384Z,10.63
2022-11-05T21:41:48.000Z,7.47
2022-11-05T21:44:15.869Z,8.18
2022-11-05T21:46:43.606Z,13.48
2022-11-05T21:49:11.257Z,8.17
2022-11-05T21:51:57.998Z,12.88
2022-11-05T21:54:43.221Z,10.87
2022-11-05T21:57:32.815Z,8.40
2022-11-05T22:00:01.431Z,6.03
2022-11-05T22:02:29.487Z,7.43
2022-11-05T22:05:00.165Z,10.55
2022-11-05T22:07:32.046Z,12.57
2022-11-05T22:10:01.109Z,8.32
2022-11-05T22:12:29.522Z,9.23
2022-11-05T22:14:57.263Z,10.05
2022-11-05T22:17:25.016Z,10.70
2022-11-05T22:19:52.827Z,12.63
2022-11-05T22:22:20.539Z,9.02
2022-11-05T22:24:49.658Z,8.80
2022-11-05T22:27:20.646Z,6.77
2022-11-05T22:29:48.631Z,13.15
2022-11-05T22:32:17.442Z,10.15
2022-11-05T22:34:45.030Z,10.07
2022-11-05T22:37:13.503Z,11.63
2022-11-05T22:39:41.271Z,12.15
2022-11-05T22:42:10.482Z,12.88
2022-11-05T22:44:38.560Z,10.18
2022-11-05T22:47:06.778Z,6.75
2022-11-05T22:49:34.861Z,9.25
2022-11-05T22:52:02.639Z,10.70
2022-11-05T22:54:35.035Z,7.07
2022-11-05T22:57:05.935Z,10.35
2022-11-05T22:59:35.438Z,9.80
2022-11-05T23:02:08.422Z,10.90
2022-11-05T23:04:37.702Z,9.43
2022-11-05T23:07:27.263Z,11.93
2022-11-05T23:10:13.594Z,12.75
2022-11-05T23:12:55.281Z,11.32
2022-11-05T23:15:42.139Z,9.68
2022-11-05T23:18:36.713Z,10.65
2022-11-05T23:21:23.252Z,7.82
2022-11-05T23:24:06.488Z,12.05
2022-11-05T23:26:54.118Z,13.60
2022-11-05T23:29:24.597Z,8.27
2022-11-05T23:32:11.666Z,12.40
2022-11-05T23:34:40.649Z,9.45
2022-11-05T23:37:26.234Z,11.40
2022-11-05T23:39:53.962Z,8.57
2022-11-05T23:42:39.294Z,9.90
2022-11-05T23:45:26.263Z,11.13
2022-11-05T23:48:13.158Z,12.10
2022-11-05T23:50:41.361Z,6.07
2022-11-05T23:53:09.490Z,9.23
2022-11-05T23:55:38.139Z,8.23
2022-11-05T23:58:06.095Z,6.97
